createdAt,value
2019-03-17T00:00:16.919Z,14.37
2019-03-17T00:02:45.750Z,9.70
2019-03-17T00:05:14.451Z,13.67
2019-03-17T00:07:43.121Z,11.47
2019-03-17T00:10:11.920Z,11.53
2019-03-17T00:12:40.580Z,13.07
2019-03-17T00:15:09.951Z,11.47
2019-03-17T00:17:41.610Z,12.50
2019-03-17T00:20:09.409Z,11.87
2019-03-17T00:22:38.067Z,12.37
2019-03-17T00:25:09.711Z,11.40
2019-03-17T00:27:37.260Z,10.80
2019-03-17T00:30:11.626Z,13.23
2019-03-17T00:32:40.286Z,14.53
2019-03-17T00:35:09.047Z,13.53
2019-03-17T00:37:37.735Z,12.00
2019-03-17T00:40:08.852Z,12.93
2019-03-17T00:42:37.509Z,14.43
2019-03-17T00:45:11.370Z,14.50
2019-03-17T00:47:39.567Z,14.57
2019-03-17T00:50:12.053Z,11.73
2019-03-17T00:52:40.700Z,13.17
2019-03-17T00:55:09.383Z,14.87
2019-03-17T00:57:38.039Z,15.17
2019-03-17T01:00:12.569Z,18.93
2019-03-17T01:02:41.243Z,12.30
2019-03-17T01:05:09.919Z,11.20
2019-03-17T01:07:38.689Z,12.17
2019-03-17T01:10:09.249Z,9.77
2019-03-17T01:12:37.913Z,11.03
2019-03-17T01:15:07.894Z,11.50
2019-03-17T01:17:36.556Z,13.90
2019-03-17T01:20:07.585Z,9.50
2019-03-17T01:22:36.285Z,11.23
2019-03-17T01:25:07.504Z,14.27
2019-03-17T01:27:36.207Z,11.20
2019-03-17T01:30:07.810Z,8.07
2019-03-17T01:32:36.491Z,12.23
2019-03-17T01:35:09.726Z,8.33
2019-03-17T01:37:39.384Z,11.10
2019-03-17T01:40:11.200Z,9.47
2019-03-17T01:42:39.853Z,17.57
2019-03-17T01:45:10.215Z,10.87
2019-03-17T01:47:38.892Z,11.63
2019-03-17T01:50:10.074Z,13.43
2019-03-17T01:52:38.735Z,12.63
2019-03-17T01:55:08.097Z,12.30
2019-03-17T01:57:36.790Z,11.50
2019-03-17T02:00:10.973Z,11.30
2019-03-17T02:02:39.708Z,12.13
2019-03-17T02:05:20.994Z,12.40
2019-03-17T02:07:39.450Z,7.73
2019-03-17T02:10:09.409Z,7.53
2019-03-17T02:12:38.069Z,9.17
2019-03-17T02:15:08.338Z,16.23
2019-03-17T02:17:37.030Z,14.80
2019-03-17T02:20:08.492Z,16.57
2019-03-17T02:22:37.161Z,15.70
2019-03-17T02:25:06.730Z,19.90
2019-03-17T02:27:35.391Z,14.33
2019-03-17T02:30:05.067Z,12.40
2019-03-17T02:32:33.734Z,17.00
2019-03-17T02:35:02.399Z,10.90
2019-03-17T02:37:31.057Z,14.23
2019-03-17T02:39:59.736Z,9.60
2019-03-17T02:42:28.667Z,11.63
2019-03-17T02:44:57.341Z,14.47
2019-03-17T02:47:26.007Z,10.47
2019-03-17T02:49:54.667Z,9.70
2019-03-17T02:52:23.355Z,8.87
2019-03-17T02:54:52.021Z,9.73
2019-03-17T02:57:20.692Z,8.73
2019-03-17T02:59:49.374Z,13.47
2019-03-17T03:02:20.996Z,10.00
2019-03-17T03:04:49.933Z,10.30
2019-03-17T03:07:18.617Z,10.93
2019-03-17T03:09:47.295Z,15.17
2019-03-17T03:12:16.222Z,11.80
2019-03-17T03:14:44.912Z,9.10
2019-03-17T03:17:13.600Z,10.73
2019-03-17T03:19:42.328Z,12.30
2019-03-17T03:22:11.284Z,9.60
2019-03-17T03:24:40.172Z,11.23
2019-03-17T03:27:08.963Z,10.10
2019-03-17T03:29:37.833Z,13.37
2019-03-17T03:32:06.494Z,14.57
2019-03-17T03:34:35.401Z,14.87
2019-03-17T03:37:04.059Z,14.60
2019-03-17T03:39:32.754Z,13.80
2019-03-17T03:42:01.409Z,19.63
2019-03-17T03:44:30.090Z,20.27
2019-03-17T03:46:58.764Z,14.60
2019-03-17T03:49:27.496Z,14.57
2019-03-17T03:51:56.170Z,14.07
2019-03-17T03:54:24.851Z,12.53
2019-03-17T03:56:53.528Z,14.77
2019-03-17T03:59:22.193Z,12.63
2019-03-17T04:01:50.858Z,13.27
2019-03-17T04:04:19.677Z,18.03
2019-03-17T04:06:48.333Z,13.00
2019-03-17T04:09:17.188Z,14.93
2019-03-17T04:11:45.859Z,15.80
2019-03-17T04:14:14.567Z,15.50
2019-03-17T04:16:43.258Z,10.83
2019-03-17T04:19:11.909Z,10.80
2019-03-17T04:21:40.605Z,14.00
2019-03-17T04:24:09.331Z,12.93
2019-03-17T04:26:38.024Z,14.70
2019-03-17T04:29:06.690Z,10.83
2019-03-17T04:31:35.363Z,9.00
2019-03-17T04:34:04.019Z,9.03
2019-03-17T04:36:40.267Z,12.23
2019-03-17T04:39:03.107Z,8.40
2019-03-17T04:41:32.107Z,8.10
2019-03-17T04:44:00.791Z,6.73
2019-03-17T04:46:29.426Z,8.70
2019-03-17T04:48:58.238Z,8.13
2019-03-17T04:51:27.028Z,10.33
2019-03-17T04:53:55.689Z,7.27
2019-03-17T04:56:24.354Z,8.30
2019-03-17T04:58:53.025Z,7.43
2019-03-17T05:01:21.909Z,8.13
2019-03-17T05:03:50.576Z,8.37
2019-03-17T05:06:19.329Z,12.60
2019-03-17T05:08:47.992Z,8.17
2019-03-17T05:11:16.651Z,7.53
2019-03-17T05:13:45.359Z,6.87
2019-03-17T05:16:14.026Z,12.27
2019-03-17T05:18:42.699Z,10.07
2019-03-17T05:21:11.403Z,11.67
2019-03-17T05:23:40.084Z,10.13
2019-03-17T05:26:08.753Z,8.67
2019-03-17T05:28:37.439Z,7.70
2019-03-17T05:31:06.115Z,8.37
2019-03-17T05:33:34.772Z,9.93
2019-03-17T05:36:03.464Z,10.97
2019-03-17T05:38:32.147Z,6.97
2019-03-17T05:41:01.114Z,9.57
2019-03-17T05:43:29.773Z,8.90
2019-03-17T05:45:58.441Z,8.67
2019-03-17T05:48:27.107Z,7.23
2019-03-17T05:50:56.035Z,8.77
2019-03-17T05:53:24.867Z,7.30
2019-03-17T05:55:53.532Z,6.13
2019-03-17T05:58:22.201Z,7.10
2019-03-17T06:00:51.027Z,6.70
2019-03-17T06:03:19.684Z,8.00
2019-03-17T06:05:48.349Z,9.63
2019-03-17T06:08:17.015Z,7.00
2019-03-17T06:10:47.046Z,8.17
2019-03-17T06:13:15.817Z,6.23
2019-03-17T06:15:44.898Z,7.93
2019-03-17T06:18:13.565Z,10.20
2019-03-17T06:20:42.236Z,7.53
2019-03-17T06:23:10.902Z,9.37
2019-03-17T06:25:39.571Z,7.33
2019-03-17T06:28:08.348Z,5.33
2019-03-17T06:30:37.056Z,9.47
2019-03-17T06:33:05.668Z,7.60
2019-03-17T06:35:34.335Z,7.20
2019-03-17T06:38:03.005Z,9.00
2019-03-17T06:40:31.672Z,6.60
2019-03-17T06:43:00.344Z,8.13
2019-03-17T06:45:29.030Z,9.70
2019-03-17T06:47:57.737Z,14.23
2019-03-17T06:50:26.369Z,18.90
2019-03-17T06:52:55.054Z,16.10
2019-03-17T06:55:23.755Z,21.03
2019-03-17T06:57:52.435Z,18.10
2019-03-17T07:00:21.139Z,15.17
2019-03-17T07:02:49.932Z,17.07
2019-03-17T07:05:18.572Z,15.93
2019-03-17T07:07:47.232Z,16.67
2019-03-17T07:10:15.919Z,13.63
2019-03-17T07:12:44.616Z,15.10
2019-03-17T07:15:13.928Z,15.50
2019-03-17T07:17:43.202Z,15.97
2019-03-17T07:20:13.296Z,16.40
2019-03-17T07:22:41.969Z,16.73
2019-03-17T07:25:10.631Z,16.63
2019-03-17T07:27:39.303Z,15.27
2019-03-17T07:30:13.161Z,15.70
2019-03-17T07:32:41.826Z,13.00
2019-03-17T07:35:10.508Z,12.60
2019-03-17T07:37:39.191Z,13.03
2019-03-17T07:40:12.663Z,12.33
2019-03-17T07:42:41.341Z,16.60
2019-03-17T07:45:11.526Z,11.90
2019-03-17T07:47:40.201Z,14.87
2019-03-17T07:50:13.469Z,12.47
2019-03-17T07:52:42.328Z,13.70
2019-03-17T07:55:11.384Z,13.30
2019-03-17T07:57:40.052Z,14.13
2019-03-17T08:00:11.391Z,12.82
2019-03-17T08:02:40.065Z,13.13
2019-03-17T08:05:10.175Z,13.55
2019-03-17T08:07:38.846Z,14.25
2019-03-17T08:10:10.444Z,10.48
2019-03-17T08:12:39.198Z,14.60
2019-03-17T08:15:10.555Z,11.30
2019-03-17T08:17:39.241Z,10.58
2019-03-17T08:20:10.243Z,8.93
2019-03-17T08:22:38.926Z,13.45
2019-03-17T08:25:09.659Z,10.10
2019-03-17T08:27:38.432Z,14.03
2019-03-17T08:30:10.047Z,14.30
2019-03-17T08:32:41.132Z,15.20
2019-03-17T08:35:10.340Z,14.18
2019-03-17T08:37:39.021Z,10.38
2019-03-17T08:40:13.821Z,10.85
2019-03-17T08:42:42.504Z,13.62
2019-03-17T08:45:13.169Z,14.38
2019-03-17T08:47:41.839Z,13.53
2019-03-17T08:50:14.580Z,13.25
2019-03-17T08:52:43.363Z,11.88
2019-03-17T08:55:12.674Z,11.57
2019-03-17T08:57:41.392Z,13.72
2019-03-17T09:00:15.349Z,17.52
2019-03-17T09:02:44.030Z,12.65
2019-03-17T09:05:12.859Z,11.15
2019-03-17T09:07:41.715Z,12.53
2019-03-17T09:10:15.481Z,10.75
2019-03-17T09:12:44.150Z,10.23
2019-03-17T09:15:12.826Z,9.73
2019-03-17T09:17:41.526Z,10.63
2019-03-17T09:20:12.664Z,9.05
2019-03-17T09:22:41.498Z,8.05
2019-03-17T09:25:11.669Z,13.20
2019-03-17T09:27:40.356Z,9.50
2019-03-17T09:30:12.257Z,11.10
2019-03-17T09:32:40.934Z,12.53
2019-03-17T09:35:10.573Z,10.32
2019-03-17T09:37:39.192Z,10.48
2019-03-17T09:40:15.450Z,10.70
2019-03-17T09:42:44.151Z,10.28
2019-03-17T09:45:13.988Z,9.95
2019-03-17T09:47:43.070Z,15.80
2019-03-17T09:50:16.041Z,7.33
2019-03-17T09:52:44.706Z,7.95
2019-03-17T09:55:15.842Z,8.75
2019-03-17T09:57:44.639Z,10.38
2019-03-17T10:00:14.851Z,9.93
2019-03-17T10:02:43.641Z,10.48
2019-03-17T10:05:12.822Z,10.38
2019-03-17T10:07:41.488Z,8.13
2019-03-17T10:10:15.059Z,9.20
2019-03-17T10:12:43.735Z,6.42
2019-03-17T10:15:14.942Z,7.03
2019-03-17T10:17:43.616Z,6.97
2019-03-17T10:20:17.235Z,7.05
2019-03-17T10:22:45.949Z,12.30
2019-03-17T10:25:15.119Z,8.30
2019-03-17T10:27:43.782Z,9.20
2019-03-17T10:30:20.271Z,6.45
2019-03-17T10:32:48.985Z,11.33
2019-03-17T10:35:17.609Z,7.62
2019-03-17T10:37:46.286Z,8.63
2019-03-17T10:40:15.957Z,6.67
2019-03-17T10:42:44.960Z,7.20
2019-03-17T10:45:14.815Z,9.68
2019-03-17T10:47:43.489Z,5.12
2019-03-17T10:50:17.542Z,6.17
2019-03-17T10:52:46.257Z,7.22
2019-03-17T10:55:14.963Z,8.33
2019-03-17T10:57:43.631Z,5.87
2019-03-17T11:00:17.437Z,7.25
2019-03-17T11:02:46.142Z,3.87
2019-03-17T11:05:14.813Z,2.92
2019-03-17T11:07:43.481Z,5.35
2019-03-17T11:10:16.113Z,7.62
2019-03-17T11:12:44.784Z,8.93
2019-03-17T11:15:15.653Z,5.45
2019-03-17T11:17:44.332Z,2.42
2019-03-17T11:20:13.918Z,3.42
2019-03-17T11:22:42.573Z,4.10
2019-03-17T11:25:13.588Z,3.50
2019-03-17T11:27:42.270Z,5.47
2019-03-17T11:30:18.498Z,4.87
2019-03-17T11:32:47.277Z,5.70
2019-03-17T11:35:15.954Z,3.95
2019-03-17T11:37:44.622Z,3.60
2019-03-17T11:40:15.909Z,2.42
2019-03-17T11:42:44.588Z,3.25
2019-03-17T11:45:14.758Z,3.00
2019-03-17T11:47:43.620Z,5.37
2019-03-17T11:50:20.297Z,5.85
2019-03-17T11:52:49.493Z,7.40
2019-03-17T11:55:19.743Z,3.55
2019-03-17T11:57:48.415Z,5.62
2019-03-17T12:00:24.264Z,4.22
2019-03-17T12:02:52.931Z,3.55
2019-03-17T12:05:21.592Z,3.70
2019-03-17T12:07:50.266Z,4.55
2019-03-17T12:10:21.207Z,4.85
2019-03-17T12:12:49.924Z,3.62
2019-03-17T12:15:23.764Z,4.30
2019-03-17T12:17:52.444Z,4.90
2019-03-17T12:20:21.117Z,4.17
2019-03-17T12:22:49.968Z,3.98
2019-03-17T12:25:19.552Z,5.20
2019-03-17T12:27:48.211Z,4.45
2019-03-17T12:30:23.991Z,3.60
2019-03-17T12:32:53.874Z,3.42
2019-03-17T12:35:22.738Z,4.62
2019-03-17T12:37:51.503Z,3.37
2019-03-17T12:40:20.276Z,2.90
2019-03-17T12:42:48.979Z,5.08
2019-03-17T12:45:17.955Z,2.92
2019-03-17T12:47:46.860Z,2.58
2019-03-17T12:50:17.184Z,2.45
2019-03-17T12:52:45.901Z,5.12
2019-03-17T12:55:14.575Z,2.33
2019-03-17T12:57:43.283Z,4.00
2019-03-17T13:00:14.770Z,3.72
2019-03-17T13:02:44.386Z,3.45
2019-03-17T13:05:13.876Z,3.22
2019-03-17T13:07:42.534Z,5.42
2019-03-17T13:10:15.986Z,3.37
2019-03-17T13:12:44.188Z,3.37
2019-03-17T13:15:13.512Z,4.25
2019-03-17T13:17:42.177Z,4.67
2019-03-17T13:20:16.108Z,5.00
2019-03-17T13:22:44.786Z,2.55
2019-03-17T13:25:14.145Z,3.42
2019-03-17T13:27:42.816Z,3.15
2019-03-17T13:30:16.084Z,1.82
2019-03-17T13:32:44.852Z,2.35
2019-03-17T13:35:13.824Z,4.37
2019-03-17T13:37:42.680Z,2.70
2019-03-17T13:40:28.162Z,2.92
2019-03-17T13:42:46.599Z,3.58
2019-03-17T13:45:15.560Z,3.95
2019-03-17T13:47:44.225Z,6.12
2019-03-17T13:50:17.854Z,3.83
2019-03-17T13:52:46.517Z,2.12
2019-03-17T13:55:15.200Z,3.08
2019-03-17T13:57:58.430Z,3.05
2019-03-17T14:00:27.099Z,3.15
2019-03-17T14:02:55.766Z,5.47
2019-03-17T14:05:24.443Z,3.17
2019-03-17T14:07:53.101Z,2.00
2019-03-17T14:10:21.771Z,3.35
2019-03-17T14:12:50.436Z,7.25
2019-03-17T14:15:19.134Z,3.37
2019-03-17T14:17:47.814Z,3.65
2019-03-17T14:20:23.651Z,1.98
2019-03-17T14:22:52.348Z,5.40
2019-03-17T14:25:26.934Z,2.90
2019-03-17T14:27:55.635Z,9.30
2019-03-17T14:30:24.309Z,4.45
2019-03-17T14:32:52.971Z,3.47
2019-03-17T14:35:22.073Z,4.15
2019-03-17T14:37:50.885Z,6.25
2019-03-17T14:40:19.575Z,3.92
2019-03-17T14:42:51.650Z,4.53
2019-03-17T14:45:20.516Z,4.37
2019-03-17T14:47:49.182Z,5.15
2019-03-17T14:50:20.752Z,4.03
2019-03-17T14:52:49.437Z,5.28
2019-03-17T14:55:18.263Z,3.02
2019-03-17T14:57:46.930Z,2.98
2019-03-17T15:00:20.345Z,3.17
2019-03-17T15:02:49.238Z,2.83
2019-03-17T15:05:18.207Z,4.33
2019-03-17T15:07:47.156Z,6.33
2019-03-17T15:10:26.308Z,5.80
2019-03-17T15:12:55.053Z,5.62
2019-03-17T15:15:24.226Z,9.08
2019-03-17T15:17:52.891Z,4.72
2019-03-17T15:20:28.113Z,7.22
2019-03-17T15:22:57.079Z,6.27
2019-03-17T15:25:26.150Z,6.27
2019-03-17T15:27:54.821Z,5.60
2019-03-17T15:30:27.547Z,3.47
2019-03-17T15:32:56.355Z,7.47
2019-03-17T15:35:25.028Z,4.53
2019-03-17T15:37:53.698Z,3.10
2019-03-17T15:40:23.317Z,2.40
2019-03-17T15:42:52.796Z,4.20
2019-03-17T15:45:25.832Z,5.97
2019-03-17T15:47:54.506Z,5.67
2019-03-17T15:50:27.502Z,7.70
2019-03-17T15:52:56.264Z,7.17
2019-03-17T15:55:24.945Z,8.80
2019-03-17T15:57:53.624Z,5.30
2019-03-17T16:00:26.307Z,4.10
2019-03-17T16:02:53.815Z,8.17
2019-03-17T16:05:22.915Z,5.30
2019-03-17T16:07:51.635Z,5.83
2019-03-17T16:10:33.110Z,6.13
2019-03-17T16:13:01.783Z,11.40
2019-03-17T16:15:30.470Z,10.33
2019-03-17T16:17:59.124Z,6.77
2019-03-17T16:20:28.205Z,10.83
2019-03-17T16:22:56.893Z,12.63
2019-03-17T16:25:27.592Z,11.53
2019-03-17T16:27:56.357Z,14.83
2019-03-17T16:30:26.461Z,10.53
2019-03-17T16:32:55.235Z,13.70
2019-03-17T16:35:23.913Z,13.00
2019-03-17T16:37:52.617Z,14.63
2019-03-17T16:40:31.935Z,14.87
2019-03-17T16:43:00.605Z,8.03
2019-03-17T16:45:29.268Z,6.10
2019-03-17T16:47:57.943Z,9.00
2019-03-17T16:50:26.607Z,10.43
2019-03-17T16:52:55.272Z,8.57
2019-03-17T16:55:24.013Z,8.20
2019-03-17T16:57:52.729Z,4.93
2019-03-17T17:00:22.409Z,11.10
2019-03-17T17:02:51.656Z,7.87
2019-03-17T17:05:21.454Z,8.20
2019-03-17T17:07:50.118Z,8.47
2019-03-17T17:10:23.601Z,10.90
2019-03-17T17:12:52.339Z,6.90
2019-03-17T17:15:26.011Z,8.97
2019-03-17T17:17:54.688Z,9.57
2019-03-17T17:20:31.880Z,7.30
2019-03-17T17:23:00.551Z,12.33
2019-03-17T17:25:29.221Z,7.70
2019-03-17T17:27:57.918Z,7.57
2019-03-17T17:30:26.678Z,6.07
2019-03-17T17:32:55.340Z,6.00
2019-03-17T17:35:24.018Z,5.97
2019-03-17T17:37:52.680Z,5.77
2019-03-17T17:40:22.532Z,10.13
2019-03-17T17:42:51.294Z,6.50
2019-03-17T17:45:22.143Z,8.77
2019-03-17T17:47:50.798Z,8.77
2019-03-17T17:50:20.661Z,8.00
2019-03-17T17:52:49.338Z,10.33
2019-03-17T17:55:18.414Z,9.27
2019-03-17T17:57:47.188Z,10.13
2019-03-17T18:00:27.439Z,7.90
2019-03-17T18:02:58.615Z,11.63
2019-03-17T18:05:26.606Z,11.00
2019-03-17T18:07:55.276Z,9.17
2019-03-17T18:10:23.952Z,12.40
2019-03-17T18:12:55.569Z,13.47
2019-03-17T18:15:26.410Z,13.80
2019-03-17T18:17:55.070Z,11.03
2019-03-17T18:20:23.751Z,15.93
2019-03-17T18:22:52.432Z,15.67
2019-03-17T18:25:25.671Z,14.30
2019-03-17T18:27:54.313Z,14.93
2019-03-17T18:30:24.584Z,13.03
2019-03-17T18:32:53.256Z,10.07
2019-03-17T18:35:22.079Z,11.70
2019-03-17T18:37:51.297Z,16.40
2019-03-17T18:40:22.180Z,12.87
2019-03-17T18:42:50.976Z,17.80
2019-03-17T18:45:32.854Z,13.87
2019-03-17T18:48:01.656Z,13.60
2019-03-17T18:50:30.323Z,15.37
2019-03-17T18:52:58.994Z,12.40
2019-03-17T18:55:27.679Z,12.37
2019-03-17T18:57:56.412Z,13.83
2019-03-17T19:00:28.001Z,15.07
2019-03-17T19:02:56.688Z,12.83
2019-03-17T19:05:25.356Z,10.83
2019-03-17T19:07:54.026Z,9.37
2019-03-17T19:10:22.704Z,12.27
2019-03-17T19:12:51.372Z,9.63
2019-03-17T19:15:23.638Z,7.53
2019-03-17T19:17:52.299Z,10.63
2019-03-17T19:20:22.993Z,12.70
2019-03-17T19:22:51.649Z,9.97
2019-03-17T19:25:25.226Z,8.67
2019-03-17T19:27:53.908Z,10.17
2019-03-17T19:30:23.564Z,9.30
2019-03-17T19:32:52.240Z,9.97
2019-03-17T19:35:20.909Z,10.40
2019-03-17T19:37:49.575Z,10.83
2019-03-17T19:40:22.608Z,7.30
2019-03-17T19:42:58.710Z,9.10
2019-03-17T19:45:21.660Z,13.33
2019-03-17T19:47:50.352Z,23.33
2019-03-17T19:50:22.882Z,18.13
2019-03-17T19:52:51.557Z,15.87
2019-03-17T19:55:20.221Z,15.80
2019-03-17T19:57:48.978Z,16.50
2019-03-17T20:00:18.839Z,15.97
2019-03-17T20:02:48.049Z,14.80
2019-03-17T20:05:16.949Z,14.30
2019-03-17T20:07:45.616Z,14.47
2019-03-17T20:10:28.311Z,9.47
2019-03-17T20:12:56.974Z,13.73
2019-03-17T20:15:25.667Z,13.57
2019-03-17T20:17:54.323Z,10.33
2019-03-17T20:20:23.007Z,11.83
2019-03-17T20:22:51.775Z,14.37
2019-03-17T20:25:24.483Z,10.17
2019-03-17T20:27:53.139Z,8.80
2019-03-17T20:30:22.038Z,10.73
2019-03-17T20:32:50.703Z,20.07
2019-03-17T20:35:19.380Z,13.10
2019-03-17T20:37:48.041Z,16.80
2019-03-17T20:40:17.819Z,10.93
2019-03-17T20:42:46.511Z,14.00
2019-03-17T20:45:16.199Z,11.63
2019-03-17T20:47:44.863Z,14.27
2019-03-17T20:50:18.146Z,9.93
2019-03-17T20:52:48.097Z,20.03
2019-03-17T20:55:18.204Z,12.17
2019-03-17T20:57:46.826Z,12.97
2019-03-17T21:00:17.594Z,10.43
2019-03-17T21:02:46.261Z,10.50
2019-03-17T21:05:15.035Z,21.53
2019-03-17T21:07:44.122Z,50.30
2019-03-17T21:10:17.117Z,30.97
2019-03-17T21:12:45.802Z,9.53
2019-03-17T21:15:20.201Z,13.77
2019-03-17T21:17:48.873Z,8.37
2019-03-17T21:20:22.384Z,10.63
2019-03-17T21:22:51.074Z,8.23
2019-03-17T21:25:19.754Z,12.33
2019-03-17T21:27:48.425Z,10.50
2019-03-17T21:30:19.863Z,12.80
2019-03-17T21:32:48.538Z,11.47
2019-03-17T21:35:17.208Z,10.00
2019-03-17T21:37:45.886Z,10.00
2019-03-17T21:40:14.577Z,8.20
2019-03-17T21:42:43.240Z,11.30
2019-03-17T21:45:13.515Z,9.20
2019-03-17T21:47:42.192Z,9.30
2019-03-17T21:50:19.203Z,9.37
2019-03-17T21:52:47.851Z,9.73
2019-03-17T21:55:16.548Z,12.60
2019-03-17T21:57:45.241Z,10.87
2019-03-17T22:00:18.306Z,7.73
2019-03-17T22:02:46.940Z,8.53
2019-03-17T22:05:15.632Z,8.43
2019-03-17T22:07:50.198Z,13.40
2019-03-17T22:10:19.755Z,11.63
2019-03-17T22:12:48.519Z,7.87
2019-03-17T22:15:18.246Z,10.73
2019-03-17T22:17:46.944Z,12.73
2019-03-17T22:20:16.049Z,10.57
2019-03-17T22:22:44.737Z,13.30
2019-03-17T22:25:14.856Z,13.70
2019-03-17T22:27:43.537Z,17.63
2019-03-17T22:30:16.689Z,16.73
2019-03-17T22:32:45.349Z,17.37
2019-03-17T22:35:14.026Z,18.47
2019-03-17T22:37:42.691Z,14.47
2019-03-17T22:40:18.381Z,16.77
2019-03-17T22:42:47.059Z,14.00
2019-03-17T22:45:17.250Z,11.50
2019-03-17T22:47:45.875Z,13.33
2019-03-17T22:50:18.018Z,12.10
2019-03-17T22:52:47.198Z,9.77
2019-03-17T22:55:15.971Z,11.73
2019-03-17T22:57:44.622Z,13.17
2019-03-17T23:00:19.579Z,10.43
2019-03-17T23:02:48.249Z,10.03
2019-03-17T23:05:16.949Z,11.53
2019-03-17T23:07:45.821Z,8.67
2019-03-17T23:10:14.593Z,9.97
2019-03-17T23:12:43.270Z,12.17
2019-03-17T23:15:12.840Z,7.83
2019-03-17T23:17:41.534Z,10.97
2019-03-17T23:20:14.444Z,10.63
2019-03-17T23:22:43.102Z,8.67
2019-03-17T23:25:12.548Z,10.07
2019-03-17T23:27:41.216Z,11.17
2019-03-17T23:30:19.000Z,11.50
2019-03-17T23:32:49.393Z,10.97
2019-03-17T23:35:18.362Z,7.20
2019-03-17T23:37:47.261Z,8.93
2019-03-17T23:40:16.826Z,8.40
2019-03-17T23:42:45.512Z,10.33
2019-03-17T23:45:14.268Z,12.10
2019-03-17T23:47:42.951Z,10.80
2019-03-17T23:50:14.936Z,10.30
2019-03-17T23:52:44.080Z,9.10
2019-03-17T23:55:14.157Z,8.50
2019-03-17T23:57:43.383Z,11.60
